createdAt,value
2022-11-23T00:00:28.342Z,980.12
2022-11-23T00:01:28.333Z,980.14
2022-11-23T00:02:28.382Z,980.18
2022-11-23T00:03:28.306Z,980.24
2022-11-23T00:04:28.292Z,980.15
2022-11-23T00:05:28.281Z,980.24
2022-11-23T00:06:28.384Z,980.16
2022-11-23T00:07:28.335Z,980.15
2022-11-23T00:08:28.242Z,980.19
2022-11-23T00:09:28.296Z,980.19
2022-11-23T00:10:28.217Z,980.19
2022-11-23T00:11:28.209Z,980.19
2022-11-23T00:12:28.192Z,980.22
2022-11-23T00:13:28.192Z,980.18
2022-11-23T00:14:28.167Z,980.18
2022-11-23T00:15:28.158Z,980.19
2022-11-23T00:16:28.143Z,980.21
2022-11-23T00:17:28.131Z,980.15
2022-11-23T00:18:28.118Z,980.19
2022-11-23T00:19:28.107Z,980.13
2022-11-23T00:20:28.097Z,980.22
2022-11-23T00:21:28.083Z,980.19
2022-11-23T00:22:28.092Z,980.19
2022-11-23T00:23:28.058Z,980.18
2022-11-23T00:24:28.092Z,980.21
2022-11-23T00:25:28.032Z,980.23
2022-11-23T00:26:28.018Z,980.23
2022-11-23T00:27:28.006Z,980.17
2022-11-23T00:28:27.994Z,980.19
2022-11-23T00:29:27.981Z,980.24
2022-11-23T00:30:27.969Z,980.25
2022-11-23T00:31:27.958Z,980.21
2022-11-23T00:32:27.945Z,980.25
2022-11-23T00:33:27.933Z,980.18
2022-11-23T00:34:27.918Z,980.23
2022-11-23T00:35:27.907Z,980.24
2022-11-23T00:36:27.895Z,980.28
2022-11-23T00:37:27.885Z,980.27
2022-11-23T00:38:27.890Z,980.34
2022-11-23T00:39:27.860Z,980.33
2022-11-23T00:40:27.842Z,980.28
2022-11-23T00:41:27.832Z,980.31
2022-11-23T00:42:27.817Z,980.36
2022-11-23T00:43:27.806Z,980.31
2022-11-23T00:44:27.791Z,980.33
2022-11-23T00:45:27.780Z,980.34
2022-11-23T00:46:27.766Z,980.35
2022-11-23T00:47:27.754Z,980.32
2022-11-23T00:48:27.739Z,980.28
2022-11-23T00:49:27.727Z,980.34
2022-11-23T00:50:27.712Z,980.26
2022-11-23T00:51:27.700Z,980.23
2022-11-23T00:52:27.684Z,980.26
2022-11-23T00:53:27.674Z,980.26
2022-11-23T00:54:27.685Z,980.19
2022-11-23T00:55:27.650Z,980.20
2022-11-23T00:57:27.625Z,980.19
2022-11-23T00:58:27.608Z,980.20
2022-11-23T00:59:27.598Z,980.22
2022-11-23T01:00:27.584Z,980.23
2022-11-23T01:01:27.617Z,980.20
2022-11-23T01:02:27.559Z,980.21
2022-11-23T01:03:27.547Z,980.25
2022-11-23T01:04:27.535Z,980.28
2022-11-23T01:05:27.524Z,980.27
2022-11-23T01:06:27.508Z,980.24
2022-11-23T01:07:27.543Z,980.29
2022-11-23T01:08:27.481Z,980.29
2022-11-23T01:09:27.475Z,980.29
2022-11-23T01:10:27.481Z,980.24
2022-11-23T01:11:27.447Z,980.31
2022-11-23T01:12:27.432Z,980.30
2022-11-23T01:13:27.425Z,980.31
2022-11-23T01:14:27.407Z,980.32
2022-11-23T01:15:27.396Z,980.33
2022-11-23T01:16:27.382Z,980.41
2022-11-23T01:17:27.370Z,980.40
2022-11-23T01:18:27.356Z,980.37
2022-11-23T01:19:27.345Z,980.43
2022-11-23T01:20:27.331Z,980.44
2022-11-23T01:21:27.321Z,980.39
2022-11-23T01:22:27.305Z,980.46
2022-11-23T01:23:27.296Z,980.50
2022-11-23T01:24:27.281Z,980.52
2022-11-23T01:25:27.270Z,980.53
2022-11-23T01:26:27.278Z,980.53
2022-11-23T01:27:27.244Z,980.58
2022-11-23T01:28:27.229Z,980.56
2022-11-23T01:29:27.220Z,980.56
2022-11-23T01:30:27.205Z,980.57
2022-11-23T01:31:27.194Z,980.59
2022-11-23T01:32:27.186Z,980.66
2022-11-23T01:33:27.171Z,980.67
2022-11-23T01:34:27.155Z,980.67
2022-11-23T01:35:27.144Z,980.66
2022-11-23T01:36:27.129Z,980.65
2022-11-23T01:37:27.121Z,980.74
2022-11-23T01:38:27.104Z,980.71
2022-11-23T01:39:27.093Z,980.68
2022-11-23T01:40:27.083Z,980.69
2022-11-23T01:41:27.070Z,980.63
2022-11-23T01:42:27.079Z,980.63
2022-11-23T01:43:27.043Z,980.57
2022-11-23T01:44:27.038Z,980.74
2022-11-23T01:45:27.017Z,980.73
2022-11-23T01:46:27.002Z,980.77
2022-11-23T01:47:26.991Z,980.69
2022-11-23T01:48:26.975Z,980.70
2022-11-23T01:49:26.964Z,980.76
2022-11-23T01:50:26.950Z,980.74
2022-11-23T01:51:26.939Z,980.72
2022-11-23T01:52:26.926Z,980.70
2022-11-23T01:53:26.913Z,980.83
2022-11-23T01:54:26.904Z,980.79
2022-11-23T01:55:26.890Z,980.88
2022-11-23T01:56:26.875Z,980.82
2022-11-23T01:58:26.872Z,980.78
2022-11-23T01:59:26.838Z,980.84
2022-11-23T02:00:26.823Z,980.78
2022-11-23T02:01:26.833Z,980.79
2022-11-23T02:02:26.798Z,980.82
2022-11-23T02:03:26.789Z,980.79
2022-11-23T02:04:26.773Z,980.83
2022-11-23T02:05:26.762Z,980.81
2022-11-23T02:06:26.747Z,980.79
2022-11-23T02:07:26.797Z,980.80
2022-11-23T02:08:26.733Z,980.79
2022-11-23T02:09:26.711Z,980.79
2022-11-23T02:10:26.697Z,980.71
2022-11-23T02:11:26.684Z,980.75
2022-11-23T02:12:26.672Z,980.79
2022-11-23T02:13:26.658Z,980.72
2022-11-23T02:14:26.672Z,980.75
2022-11-23T02:15:26.634Z,980.79
2022-11-23T02:16:26.622Z,980.78
2022-11-23T02:17:26.610Z,980.74
2022-11-23T02:18:26.597Z,980.80
2022-11-23T02:19:26.583Z,980.75
2022-11-23T02:20:26.573Z,980.74
2022-11-23T02:21:26.560Z,980.81
2022-11-23T02:22:26.552Z,980.72
2022-11-23T02:23:26.532Z,980.75
2022-11-23T02:24:26.521Z,980.76
2022-11-23T02:25:26.509Z,980.71
2022-11-23T02:26:26.500Z,980.74
2022-11-23T02:27:26.485Z,980.75
2022-11-23T02:28:26.472Z,980.79
2022-11-23T02:29:26.462Z,980.73
2022-11-23T02:30:26.472Z,980.73
2022-11-23T02:31:26.482Z,980.73
2022-11-23T02:32:26.426Z,980.75
2022-11-23T02:33:26.423Z,980.71
2022-11-23T02:34:26.395Z,980.73
2022-11-23T02:35:26.379Z,980.73
2022-11-23T02:36:26.369Z,980.72
2022-11-23T02:37:26.354Z,980.70
2022-11-23T02:38:26.345Z,980.73
2022-11-23T02:39:26.328Z,980.71
2022-11-23T02:40:26.318Z,980.72
2022-11-23T02:41:26.303Z,980.69
2022-11-23T02:42:26.293Z,980.72
2022-11-23T02:43:26.278Z,980.71
2022-11-23T02:44:26.275Z,980.68
2022-11-23T02:45:26.251Z,980.69
2022-11-23T02:46:26.263Z,980.71
2022-11-23T02:47:26.288Z,980.72
2022-11-23T02:48:26.214Z,980.73
2022-11-23T02:49:26.200Z,980.73
2022-11-23T02:50:26.191Z,980.72
2022-11-23T02:51:26.177Z,980.70
2022-11-23T02:52:26.164Z,980.72
2022-11-23T02:53:26.149Z,980.69
2022-11-23T02:54:26.139Z,980.69
2022-11-23T02:55:26.123Z,980.65
2022-11-23T02:56:26.114Z,980.69
2022-11-23T02:57:26.099Z,980.68
2022-11-23T02:59:26.081Z,980.68
2022-11-23T03:00:26.141Z,980.68
2022-11-23T03:01:26.052Z,980.68
2022-11-23T03:02:26.061Z,980.67
2022-11-23T03:03:26.029Z,980.64
2022-11-23T03:04:27.920Z,980.62
2022-11-23T03:05:26.001Z,980.66
2022-11-23T03:06:25.990Z,980.60
2022-11-23T03:07:26.011Z,980.66
2022-11-23T03:08:25.965Z,980.67
2022-11-23T03:09:25.952Z,980.65
2022-11-23T03:10:25.940Z,980.71
2022-11-23T03:11:25.926Z,980.66
2022-11-23T03:12:25.915Z,980.76
2022-11-23T03:13:25.901Z,980.73
2022-11-23T03:14:25.894Z,980.77
2022-11-23T03:15:25.879Z,980.73
2022-11-23T03:16:25.866Z,980.67
2022-11-23T03:17:25.852Z,980.78
2022-11-23T03:18:25.865Z,980.81
2022-11-23T03:19:25.825Z,980.78
2022-11-23T03:20:25.815Z,980.76
2022-11-23T03:21:25.801Z,980.79
2022-11-23T03:22:25.790Z,980.87
2022-11-23T03:23:25.778Z,980.84
2022-11-23T03:24:25.765Z,980.89
2022-11-23T03:25:25.753Z,980.93
2022-11-23T03:26:25.741Z,980.89
2022-11-23T03:27:25.726Z,980.91
2022-11-23T03:28:25.715Z,980.89
2022-11-23T03:29:25.704Z,980.89
2022-11-23T03:30:25.691Z,980.89
2022-11-23T03:31:25.675Z,980.86
2022-11-23T03:32:25.665Z,980.90
2022-11-23T03:33:25.650Z,980.84
2022-11-23T03:34:25.662Z,980.89
2022-11-23T03:35:25.624Z,980.82
2022-11-23T03:36:25.614Z,980.83
2022-11-23T03:37:25.600Z,980.85
2022-11-23T03:38:25.587Z,980.89
2022-11-23T03:39:25.574Z,980.86
2022-11-23T03:40:25.563Z,980.83
2022-11-23T03:41:25.551Z,980.83
2022-11-23T03:42:25.539Z,980.84
2022-11-23T03:43:25.524Z,980.81
2022-11-23T03:44:25.511Z,980.84
2022-11-23T03:45:25.498Z,980.87
2022-11-23T03:46:25.489Z,980.83
2022-11-23T03:47:25.472Z,980.84
2022-11-23T03:48:25.465Z,980.87
2022-11-23T03:49:25.447Z,980.90
2022-11-23T03:50:25.475Z,980.86
2022-11-23T03:51:25.423Z,980.88
2022-11-23T03:52:25.412Z,980.92
2022-11-23T03:53:25.409Z,980.88
2022-11-23T03:54:25.406Z,980.88
2022-11-23T03:55:25.373Z,980.89
2022-11-23T03:56:25.361Z,980.83
2022-11-23T03:57:25.356Z,980.88
2022-11-23T03:58:25.336Z,980.89
2022-11-23T04:00:25.310Z,980.92
2022-11-23T04:01:25.354Z,980.90
2022-11-23T04:02:25.285Z,980.89
2022-11-23T04:03:25.270Z,980.91
2022-11-23T04:04:25.269Z,980.86
2022-11-23T04:05:25.246Z,980.84
2022-11-23T04:06:25.260Z,980.85
2022-11-23T04:07:25.244Z,980.92
2022-11-23T04:08:25.210Z,980.83
2022-11-23T04:09:25.197Z,980.86
2022-11-23T04:10:25.184Z,980.89
2022-11-23T04:11:25.169Z,980.88
2022-11-23T04:12:25.157Z,980.87
2022-11-23T04:13:25.144Z,980.86
2022-11-23T04:14:25.142Z,980.88
2022-11-23T04:15:25.119Z,980.87
2022-11-23T04:16:25.106Z,980.80
2022-11-23T04:17:25.096Z,980.92
2022-11-23T04:18:25.082Z,980.85
2022-11-23T04:19:25.070Z,980.82
2022-11-23T04:20:25.057Z,980.89
2022-11-23T04:21:25.049Z,980.88
2022-11-23T04:22:25.055Z,980.80
2022-11-23T04:23:25.025Z,980.87
2022-11-23T04:24:25.007Z,980.89
2022-11-23T04:25:24.996Z,980.84
2022-11-23T04:26:24.987Z,980.78
2022-11-23T04:27:24.969Z,980.77
2022-11-23T04:28:24.957Z,980.83
2022-11-23T04:29:24.942Z,980.80
2022-11-23T04:30:24.931Z,980.77
2022-11-23T04:31:24.919Z,980.81
2022-11-23T04:32:24.906Z,980.82
2022-11-23T04:33:24.893Z,980.83
2022-11-23T04:34:24.881Z,980.79
2022-11-23T04:35:24.867Z,980.81
2022-11-23T04:36:24.857Z,980.76
2022-11-23T04:37:24.844Z,980.78
2022-11-23T04:38:24.853Z,980.85
2022-11-23T04:39:24.818Z,980.78
2022-11-23T04:40:24.808Z,980.80
2022-11-23T04:41:24.791Z,980.78
2022-11-23T04:42:24.782Z,980.86
2022-11-23T04:43:24.766Z,980.79
2022-11-23T04:44:24.755Z,980.81
2022-11-23T04:45:24.742Z,980.87
2022-11-23T04:46:24.730Z,980.84
2022-11-23T04:47:24.718Z,980.85
2022-11-23T04:48:24.705Z,980.90
2022-11-23T04:49:24.694Z,980.89
2022-11-23T04:50:24.680Z,980.90
2022-11-23T04:51:24.667Z,980.88
2022-11-23T04:52:24.658Z,980.89
2022-11-23T04:53:24.640Z,980.87
2022-11-23T04:54:24.655Z,980.82
2022-11-23T04:55:24.615Z,980.84
2022-11-23T04:56:24.609Z,980.84
2022-11-23T04:57:24.591Z,980.81
2022-11-23T04:58:26.006Z,980.83
2022-11-23T04:59:24.564Z,980.86
2022-11-23T05:01:24.662Z,980.91
2022-11-23T05:03:24.515Z,980.89
2022-11-23T05:04:24.505Z,980.90
2022-11-23T05:05:24.488Z,980.99
2022-11-23T05:06:24.479Z,980.95
2022-11-23T05:07:24.505Z,981.03
2022-11-23T05:08:24.455Z,981.00
2022-11-23T05:09:24.440Z,980.98
2022-11-23T05:10:24.460Z,980.96
2022-11-23T05:11:24.415Z,981.05
2022-11-23T05:12:24.405Z,981.10
2022-11-23T05:13:24.391Z,980.97
2022-11-23T05:14:24.380Z,980.98
2022-11-23T05:15:24.367Z,981.05
2022-11-23T05:16:24.355Z,981.00
2022-11-23T05:17:24.344Z,981.00
2022-11-23T05:18:24.330Z,980.94
2022-11-23T05:19:24.320Z,980.97
2022-11-23T05:20:24.305Z,981.01
2022-11-23T05:21:24.290Z,980.98
2022-11-23T05:22:24.281Z,980.99
2022-11-23T05:23:24.267Z,980.94
2022-11-23T05:24:24.255Z,980.96
2022-11-23T05:25:24.241Z,981.00
2022-11-23T05:26:24.254Z,980.97
2022-11-23T05:27:24.218Z,981.00
2022-11-23T05:28:40.187Z,980.99
2022-11-23T05:29:24.190Z,980.99
2022-11-23T05:30:24.185Z,980.97
2022-11-23T05:31:24.166Z,980.96
2022-11-23T05:32:24.156Z,980.94
2022-11-23T05:33:24.143Z,980.93
2022-11-23T05:34:24.131Z,980.94
2022-11-23T05:35:24.117Z,980.99
2022-11-23T05:36:24.108Z,980.96
2022-11-23T05:37:24.094Z,980.98
2022-11-23T05:38:24.080Z,981.00
2022-11-23T05:39:24.068Z,980.99
2022-11-23T05:40:24.055Z,980.94
2022-11-23T05:41:24.041Z,980.98
2022-11-23T05:42:24.056Z,980.97
2022-11-23T05:43:24.018Z,980.95
2022-11-23T05:44:24.007Z,981.07
2022-11-23T05:45:23.991Z,980.99
2022-11-23T05:46:23.980Z,981.00
2022-11-23T05:47:23.964Z,981.04
2022-11-23T05:48:23.954Z,981.02
2022-11-23T05:49:23.939Z,981.07
2022-11-23T05:50:23.930Z,981.02
2022-11-23T05:51:23.914Z,981.01
2022-11-23T05:52:23.906Z,981.02
2022-11-23T05:53:23.888Z,981.01
2022-11-23T05:54:23.881Z,981.02
2022-11-23T05:55:23.861Z,981.04
2022-11-23T05:56:23.852Z,981.03
2022-11-23T05:57:23.845Z,981.04
2022-11-23T05:58:23.849Z,981.09
2022-11-23T05:59:23.811Z,981.01
2022-11-23T06:00:23.798Z,981.05
2022-11-23T06:02:23.777Z,981.05
2022-11-23T06:03:23.760Z,981.10
2022-11-23T06:04:23.795Z,981.11
2022-11-23T06:05:23.742Z,981.09
2022-11-23T06:06:23.725Z,981.09
2022-11-23T06:07:23.789Z,981.07
2022-11-23T06:08:23.699Z,981.09
2022-11-23T06:09:23.684Z,981.08
2022-11-23T06:10:23.677Z,981.07
2022-11-23T06:11:23.660Z,981.09
2022-11-23T06:12:23.649Z,981.08
2022-11-23T06:13:23.635Z,981.09
2022-11-23T06:14:23.652Z,981.04
2022-11-23T06:15:23.611Z,980.98
2022-11-23T06:16:23.600Z,981.03
2022-11-23T06:17:23.584Z,981.05
2022-11-23T06:18:23.572Z,981.08
2022-11-23T06:19:23.558Z,981.06
2022-11-23T06:20:23.550Z,981.10
2022-11-23T06:21:23.533Z,981.06
2022-11-23T06:22:23.529Z,981.10
2022-11-23T06:23:23.508Z,981.04
2022-11-23T06:24:23.498Z,981.06
2022-11-23T06:25:23.486Z,981.11
2022-11-23T06:26:23.472Z,981.04
2022-11-23T06:27:23.456Z,981.11
2022-11-23T06:28:23.447Z,981.09
2022-11-23T06:29:23.434Z,981.06
2022-11-23T06:30:23.443Z,981.10
2022-11-23T06:31:23.408Z,981.12
2022-11-23T06:32:23.403Z,981.12
2022-11-23T06:33:23.384Z,981.14
2022-11-23T06:34:23.373Z,981.06
2022-11-23T06:35:23.362Z,981.03
2022-11-23T06:36:23.345Z,981.10
2022-11-23T06:37:23.334Z,981.13
2022-11-23T06:38:23.320Z,981.01
2022-11-23T06:39:23.309Z,981.02
2022-11-23T06:40:23.296Z,981.13
2022-11-23T06:41:25.966Z,981.10
2022-11-23T06:42:38.436Z,981.08
2022-11-23T06:43:25.258Z,981.05
2022-11-23T06:44:23.244Z,981.13
2022-11-23T06:45:23.232Z,981.16
2022-11-23T06:46:23.243Z,981.19
2022-11-23T06:47:26.327Z,981.09
2022-11-23T06:48:23.196Z,981.17
2022-11-23T06:49:23.181Z,981.19
2022-11-23T06:50:23.171Z,981.17
2022-11-23T06:51:23.158Z,981.18
2022-11-23T06:52:23.146Z,981.27
2022-11-23T06:53:23.135Z,981.21
2022-11-23T06:54:27.213Z,981.23
2022-11-23T06:55:23.108Z,981.22
2022-11-23T06:56:23.093Z,981.26
2022-11-23T06:57:23.086Z,981.27
2022-11-23T06:58:23.071Z,981.27
2022-11-23T06:59:23.058Z,981.23
2022-11-23T07:00:23.045Z,981.34
2022-11-23T07:01:23.094Z,981.36
2022-11-23T07:03:23.077Z,981.36
2022-11-23T07:04:22.995Z,981.30
2022-11-23T07:05:22.983Z,981.32
2022-11-23T07:06:22.974Z,981.33
2022-11-23T07:07:22.984Z,981.40
2022-11-23T07:08:22.948Z,981.33
2022-11-23T07:09:22.935Z,981.35
2022-11-23T07:10:22.921Z,981.24
2022-11-23T07:11:22.910Z,981.23
2022-11-23T07:12:22.901Z,981.32
2022-11-23T07:13:22.884Z,981.30
2022-11-23T07:14:22.878Z,981.31
2022-11-23T07:15:22.859Z,981.35
2022-11-23T07:16:22.847Z,981.41
2022-11-23T07:17:22.834Z,981.46
2022-11-23T07:18:22.843Z,981.42
2022-11-23T07:19:22.809Z,981.42
2022-11-23T07:20:22.798Z,981.46
2022-11-23T07:21:22.786Z,981.43
2022-11-23T07:22:22.771Z,981.46
2022-11-23T07:23:22.759Z,981.42
2022-11-23T07:24:22.747Z,981.37
2022-11-23T07:25:22.734Z,981.36
2022-11-23T07:26:22.721Z,981.38
2022-11-23T07:27:22.713Z,981.38
2022-11-23T07:28:22.695Z,981.42
2022-11-23T07:29:22.697Z,981.42
2022-11-23T07:30:26.560Z,981.40
2022-11-23T07:31:22.661Z,981.41
2022-11-23T07:32:22.646Z,981.49
2022-11-23T07:33:22.635Z,981.41
2022-11-23T07:34:22.645Z,981.46
2022-11-23T07:35:22.608Z,981.46
2022-11-23T07:36:22.600Z,981.46
2022-11-23T07:37:22.588Z,981.46
2022-11-23T07:38:22.571Z,981.53
2022-11-23T07:39:36.452Z,981.50
2022-11-23T07:40:22.544Z,981.54
2022-11-23T07:41:22.532Z,981.52
2022-11-23T07:42:33.408Z,981.57
2022-11-23T07:43:24.509Z,981.57
2022-11-23T07:44:22.502Z,981.52
2022-11-23T07:45:22.483Z,981.61
2022-11-23T07:46:22.470Z,981.62
2022-11-23T07:47:22.461Z,981.55
2022-11-23T07:48:22.441Z,981.59
2022-11-23T07:49:22.432Z,981.54
2022-11-23T07:50:22.438Z,981.56
2022-11-23T07:51:22.414Z,981.60
2022-11-23T07:52:22.392Z,981.55
2022-11-23T07:53:22.383Z,981.61
2022-11-23T07:54:23.947Z,981.62
2022-11-23T07:55:22.354Z,981.70
2022-11-23T07:56:22.340Z,981.69
2022-11-23T07:57:22.329Z,981.67
2022-11-23T07:58:22.313Z,981.70
2022-11-23T07:59:22.301Z,981.67
2022-11-23T08:00:22.294Z,981.73
2022-11-23T08:01:22.276Z,981.74
2022-11-23T08:02:22.299Z,981.81
2022-11-23T08:04:22.234Z,981.68
2022-11-23T08:05:22.224Z,981.63
2022-11-23T08:06:22.233Z,981.63
2022-11-23T08:07:22.232Z,981.61
2022-11-23T08:08:22.183Z,981.59
2022-11-23T08:09:22.172Z,981.57
2022-11-23T08:10:22.157Z,981.64
2022-11-23T08:11:22.157Z,981.62
2022-11-23T08:12:22.132Z,981.60
2022-11-23T08:13:22.150Z,981.57
2022-11-23T08:14:22.106Z,981.61
2022-11-23T08:15:22.093Z,981.58
2022-11-23T08:16:22.079Z,981.60
2022-11-23T08:17:22.067Z,981.59
2022-11-23T08:18:22.055Z,981.65
2022-11-23T08:19:22.041Z,981.63
2022-11-23T08:20:22.028Z,981.52
2022-11-23T08:21:22.016Z,981.54
2022-11-23T08:22:22.032Z,981.55
2022-11-23T08:23:21.999Z,981.46
2022-11-23T08:24:21.978Z,981.54
2022-11-23T08:25:21.965Z,981.52
2022-11-23T08:26:21.951Z,981.55
2022-11-23T08:27:21.938Z,981.51
2022-11-23T08:28:21.926Z,981.50
2022-11-23T08:29:21.913Z,981.54
2022-11-23T08:30:21.898Z,981.56
2022-11-23T08:31:21.886Z,981.57
2022-11-23T08:32:21.873Z,981.58
2022-11-23T08:33:21.861Z,981.56
2022-11-23T08:34:21.845Z,981.61
2022-11-23T08:35:21.836Z,981.54
2022-11-23T08:36:21.819Z,981.53
2022-11-23T08:37:21.810Z,981.50
2022-11-23T08:38:21.822Z,981.62
2022-11-23T08:39:21.784Z,981.58
2022-11-23T08:40:25.337Z,981.51
2022-11-23T08:41:21.758Z,981.55
2022-11-23T08:42:21.743Z,981.53
2022-11-23T08:43:21.731Z,981.55
2022-11-23T08:44:21.719Z,981.53
2022-11-23T08:45:21.707Z,981.56
2022-11-23T08:46:21.693Z,981.55
2022-11-23T08:47:21.681Z,981.61
2022-11-23T08:48:21.667Z,981.54
2022-11-23T08:49:21.659Z,981.53
2022-11-23T08:50:21.667Z,981.56
2022-11-23T08:51:21.633Z,981.50
2022-11-23T08:52:21.617Z,981.51
2022-11-23T08:53:21.607Z,981.46
2022-11-23T08:54:21.626Z,981.47
2022-11-23T08:55:21.581Z,981.45
2022-11-23T08:56:21.566Z,981.50
2022-11-23T08:57:21.554Z,981.44
2022-11-23T08:58:21.545Z,981.39
2022-11-23T08:59:21.526Z,981.45
2022-11-23T09:00:21.528Z,981.43
2022-11-23T09:01:21.589Z,981.40
2022-11-23T09:02:21.487Z,981.42
2022-11-23T09:03:21.487Z,981.37
2022-11-23T09:05:21.459Z,981.37
2022-11-23T09:06:21.437Z,981.30
2022-11-23T09:07:21.491Z,981.27
2022-11-23T09:08:21.414Z,981.37
2022-11-23T09:09:21.402Z,981.35
2022-11-23T09:10:21.410Z,981.31
2022-11-23T09:11:21.375Z,981.30
2022-11-23T09:12:21.364Z,981.36
2022-11-23T09:13:21.351Z,981.34
2022-11-23T09:14:21.338Z,981.30
2022-11-23T09:15:21.327Z,981.28
2022-11-23T09:16:21.313Z,981.34
2022-11-23T09:17:21.303Z,981.33
2022-11-23T09:18:21.290Z,981.31
2022-11-23T09:19:21.278Z,981.30
2022-11-23T09:20:21.358Z,981.32
2022-11-23T09:21:21.310Z,981.31
2022-11-23T09:22:21.242Z,981.39
2022-11-23T09:23:21.230Z,981.39
2022-11-23T09:24:21.261Z,981.06
2022-11-23T09:25:21.211Z,981.07
2022-11-23T09:26:21.212Z,981.11
2022-11-23T09:27:21.182Z,981.21
2022-11-23T09:28:21.163Z,981.22
2022-11-23T09:29:21.158Z,981.22
2022-11-23T09:30:21.251Z,981.23
2022-11-23T09:31:21.126Z,981.36
2022-11-23T09:32:21.117Z,981.23
2022-11-23T09:33:21.102Z,981.52
2022-11-23T09:34:21.086Z,981.27
2022-11-23T09:35:21.076Z,981.50
2022-11-23T09:36:21.062Z,981.55
2022-11-23T09:37:21.052Z,981.53
2022-11-23T09:38:29.310Z,981.20
2022-11-23T09:39:21.026Z,981.14
2022-11-23T09:40:21.093Z,981.25
2022-11-23T09:41:21.001Z,981.35
2022-11-23T09:42:21.009Z,981.36
2022-11-23T09:43:20.978Z,981.56
2022-11-23T09:44:20.961Z,981.43
2022-11-23T09:45:20.949Z,981.36
2022-11-23T09:46:20.938Z,981.44
2022-11-23T09:47:20.922Z,981.43
2022-11-23T09:48:20.907Z,981.15
2022-11-23T09:49:20.897Z,981.40
2022-11-23T09:50:20.974Z,981.47
2022-11-23T09:51:20.871Z,981.38
2022-11-23T09:52:20.860Z,981.41
2022-11-23T09:53:20.846Z,981.37
2022-11-23T09:54:20.832Z,981.42
2022-11-23T09:55:20.821Z,981.44
2022-11-23T09:56:20.809Z,981.42
2022-11-23T09:57:20.798Z,981.47
2022-11-23T09:58:20.804Z,981.47
2022-11-23T09:59:20.774Z,981.36
2022-11-23T10:00:20.758Z,981.31
2022-11-23T10:01:20.800Z,981.34
2022-11-23T10:02:20.736Z,981.32
2022-11-23T10:03:20.732Z,981.34
2022-11-23T10:04:20.705Z,981.24
2022-11-23T10:06:20.686Z,981.21
2022-11-23T10:07:20.674Z,981.23
2022-11-23T10:08:20.660Z,981.16
2022-11-23T10:09:20.649Z,981.17
2022-11-23T10:10:20.634Z,981.17
2022-11-23T10:11:20.626Z,981.15
2022-11-23T10:12:20.610Z,981.09
2022-11-23T10:13:20.601Z,981.14
2022-11-23T10:14:20.614Z,981.17
2022-11-23T10:15:20.577Z,981.14
2022-11-23T10:16:20.564Z,981.10
2022-11-23T10:17:20.554Z,981.07
2022-11-23T10:18:20.538Z,981.10
2022-11-23T10:19:20.528Z,981.02
2022-11-23T10:20:20.517Z,980.97
2022-11-23T10:21:20.506Z,981.02
2022-11-23T10:22:20.490Z,981.02
2022-11-23T10:23:20.482Z,981.02
2022-11-23T10:24:20.472Z,981.02
2022-11-23T10:25:20.456Z,981.03
2022-11-23T10:26:20.444Z,981.00
2022-11-23T10:27:20.440Z,980.99
2022-11-23T10:28:20.419Z,981.02
2022-11-23T10:29:20.408Z,980.99
2022-11-23T10:30:20.418Z,980.99
2022-11-23T10:31:20.383Z,980.90
2022-11-23T10:32:20.372Z,980.95
2022-11-23T10:33:20.360Z,980.99
2022-11-23T10:34:20.347Z,980.97
2022-11-23T10:35:20.335Z,980.96
2022-11-23T10:36:20.326Z,980.97
2022-11-23T10:37:20.311Z,981.00
2022-11-23T10:38:20.303Z,981.01
2022-11-23T10:39:20.288Z,981.05
2022-11-23T10:40:20.276Z,980.89
2022-11-23T10:41:20.266Z,981.13
2022-11-23T10:42:20.259Z,981.22
2022-11-23T10:43:20.242Z,980.88
2022-11-23T10:44:20.230Z,980.81
2022-11-23T10:45:20.218Z,980.82
2022-11-23T10:46:20.230Z,980.89
2022-11-23T10:47:20.191Z,980.98
2022-11-23T10:48:20.181Z,980.97
2022-11-23T10:49:20.164Z,980.87
2022-11-23T10:50:20.154Z,980.94
2022-11-23T10:51:20.140Z,980.95
2022-11-23T10:52:20.131Z,980.94
2022-11-23T10:53:20.114Z,981.02
2022-11-23T10:54:20.103Z,981.05
2022-11-23T10:55:20.087Z,980.99
2022-11-23T10:56:20.077Z,981.04
2022-11-23T10:57:20.061Z,981.23
2022-11-23T10:58:20.049Z,980.92
2022-11-23T10:59:20.035Z,980.86
2022-11-23T11:00:20.023Z,980.92
2022-11-23T11:01:20.056Z,981.07
2022-11-23T11:02:20.019Z,980.89
2022-11-23T11:03:19.982Z,981.00
2022-11-23T11:04:19.971Z,980.92
2022-11-23T11:05:19.959Z,980.95
2022-11-23T11:07:19.987Z,980.95
2022-11-23T11:08:19.918Z,980.93
2022-11-23T11:09:19.906Z,980.96
2022-11-23T11:10:19.893Z,980.80
2022-11-23T11:11:19.881Z,981.14
2022-11-23T11:12:19.868Z,980.99
2022-11-23T11:13:19.855Z,980.73
2022-11-23T11:14:19.845Z,980.67
2022-11-23T11:15:19.826Z,980.72
2022-11-23T11:16:19.818Z,980.79
2022-11-23T11:17:19.802Z,980.82
2022-11-23T11:18:19.814Z,980.59
2022-11-23T11:19:19.775Z,980.83
2022-11-23T11:20:19.767Z,980.87
2022-11-23T11:21:19.753Z,980.61
2022-11-23T11:22:19.741Z,980.79
2022-11-23T11:23:19.725Z,980.59
2022-11-23T11:24:19.716Z,980.82
2022-11-23T11:25:19.701Z,980.52
2022-11-23T11:26:19.690Z,980.83
2022-11-23T11:27:19.677Z,980.49
2022-11-23T11:28:19.673Z,980.73
2022-11-23T11:29:19.652Z,980.46
2022-11-23T11:30:19.641Z,980.75
2022-11-23T11:31:19.628Z,980.74
2022-11-23T11:32:19.616Z,980.51
2022-11-23T11:33:19.610Z,980.39
2022-11-23T11:34:19.619Z,980.65
2022-11-23T11:35:21.208Z,980.26
2022-11-23T11:36:19.567Z,980.34
2022-11-23T11:37:19.552Z,980.34
2022-11-23T11:38:19.541Z,980.28
2022-11-23T11:39:19.945Z,980.27
2022-11-23T11:40:19.517Z,980.27
2022-11-23T11:41:19.503Z,980.24
2022-11-23T11:42:19.493Z,980.31
2022-11-23T11:43:19.477Z,980.45
2022-11-23T11:44:19.472Z,980.23
2022-11-23T11:45:19.451Z,980.31
2022-11-23T11:46:34.878Z,980.23
2022-11-23T11:47:21.425Z,980.42
2022-11-23T11:48:19.415Z,980.35
2022-11-23T11:49:19.403Z,980.35
2022-11-23T11:50:19.426Z,980.32
2022-11-23T11:51:19.383Z,980.26
2022-11-23T11:52:19.409Z,980.21
2022-11-23T11:53:19.419Z,980.21
2022-11-23T11:54:19.362Z,980.21
2022-11-23T11:55:19.331Z,980.28
2022-11-23T11:56:19.315Z,979.95
2022-11-23T11:57:19.301Z,980.03
2022-11-23T11:59:19.283Z,979.89
2022-11-23T12:00:19.271Z,979.98
2022-11-23T12:01:19.251Z,979.94
2022-11-23T12:02:19.244Z,979.95
2022-11-23T12:03:19.325Z,980.09
2022-11-23T12:04:19.216Z,979.95
2022-11-23T12:05:19.204Z,980.06
2022-11-23T12:06:23.662Z,979.99
2022-11-23T12:08:19.162Z,980.00
2022-11-23T12:09:19.149Z,980.01
2022-11-23T12:10:19.137Z,980.09
2022-11-23T12:11:19.123Z,980.00
2022-11-23T12:12:19.111Z,980.10
2022-11-23T12:13:19.095Z,980.04
2022-11-23T12:14:19.084Z,980.09
2022-11-23T12:15:47.296Z,979.97
2022-11-23T12:16:19.059Z,979.98
2022-11-23T12:17:32.300Z,980.02
2022-11-23T12:18:21.039Z,980.15
2022-11-23T12:19:19.018Z,980.10
2022-11-23T12:20:19.006Z,980.13
2022-11-23T12:21:19.056Z,980.17
2022-11-23T12:22:19.090Z,980.09
2022-11-23T12:23:18.967Z,980.17
2022-11-23T12:24:18.960Z,980.12
2022-11-23T12:25:18.941Z,980.29
2022-11-23T12:26:18.929Z,980.08
2022-11-23T12:27:18.915Z,980.17
2022-11-23T12:28:18.903Z,980.18
2022-11-23T12:29:18.892Z,980.10
2022-11-23T12:30:18.877Z,980.14
2022-11-23T12:31:18.863Z,979.89
2022-11-23T12:32:18.851Z,979.96
2022-11-23T12:33:18.839Z,980.09
2022-11-23T12:34:18.824Z,979.90
2022-11-23T12:35:18.811Z,980.19
2022-11-23T12:36:20.663Z,979.92
2022-11-23T12:37:18.784Z,979.94
2022-11-23T12:38:18.798Z,979.90
2022-11-23T12:39:18.761Z,979.87
2022-11-23T12:40:18.756Z,979.89
2022-11-23T12:41:18.733Z,980.04
2022-11-23T12:42:18.721Z,979.95